Time;durP1;ratioP1;P1;durP2;ratioP2;P2;SDS_P1;SDS_P2;PMS_P1;PMS_P2;Temp;Humidity;BMP_temperature;BMP_pressure;BME280_temperature;BME280_humidity;BME280_pressure;Samples;Min_cycle;Max_cycle;Signal;HPM_P1;HPM_P2
2022/11/07 00:01:16;;;;;;;6.22;1.10;;;8.20;99.90;;;;;;4938347;29;20071;-91
2022/11/07 00:03:42;;;;;;;6.55;1.20;;;8.20;99.90;;;;;;4938266;29;20035;-92
2022/11/07 00:06:08;;;;;;;6.43;1.05;;;8.20;99.90;;;;;;4938085;29;20039;-90
2022/11/07 00:08:34;;;;;;;4.13;1.42;;;8.20;99.90;;;;;;4970059;28;20031;-91
2022/11/07 00:11:01;;;;;;;8.05;1.58;;;8.20;99.90;;;;;;4938083;29;20031;-91
2022/11/07 00:13:27;;;;;;;5.60;1.00;;;8.20;99.90;;;;;;4938079;29;20023;-91
2022/11/07 00:16:05;;;;;;;5.38;0.95;;;8.20;99.90;;;;;;4938012;29;20053;-90
2022/11/07 00:18:31;;;;;;;8.65;1.00;;;8.20;99.90;;;;;;4937883;29;20465;-90
2022/11/07 00:21:15;;;;;;;10.90;1.48;;;8.20;99.90;;;;;;4938160;29;20508;-91
2022/11/07 00:23:41;;;;;;;11.88;1.50;;;8.20;99.90;;;;;;4938149;29;20038;-91
2022/11/07 00:26:11;;;;;;;13.73;1.92;;;8.20;99.90;;;;;;4969593;28;20039;-90
2022/11/07 00:28:39;;;;;;;8.30;1.80;;;8.10;99.90;;;;;;4937752;29;20054;-90
2022/11/07 00:31:07;;;;;;;8.18;1.23;;;8.10;99.90;;;;;;4938083;29;20035;-91
2022/11/07 00:33:32;;;;;;;12.35;1.90;;;8.10;99.90;;;;;;4937520;29;20086;-90
2022/11/07 00:35:58;;;;;;;11.77;1.77;;;8.20;99.90;;;;;;4937575;29;20035;-90
2022/11/07 00:38:24;;;;;;;11.85;1.83;;;8.20;99.90;;;;;;4939037;29;20023;-91
2022/11/07 00:40:55;;;;;;;13.27;2.03;;;8.20;99.90;;;;;;4937669;29;20051;-90
2022/11/07 00:43:20;;;;;;;18.60;1.88;;;8.20;99.90;;;;;;4937903;29;20024;-91
2022/11/07 00:45:46;;;;;;;7.05;2.03;;;8.20;99.90;;;;;;4937574;29;20066;-91
2022/11/07 00:48:12;;;;;;;7.55;1.83;;;8.20;99.90;;;;;;4938055;29;20122;-90
2022/11/07 00:50:37;;;;;;;15.40;1.98;;;8.20;99.90;;;;;;4933857;28;20046;-89
2022/11/07 00:53:03;;;;;;;9.55;2.03;;;8.20;99.90;;;;;;4937543;29;20023;-90
2022/11/07 00:55:31;;;;;;;18.60;2.10;;;8.30;99.90;;;;;;4937155;29;20035;-90
2022/11/07 00:57:56;;;;;;;10.88;2.20;;;8.30;99.90;;;;;;4937401;29;20031;-91
2022/11/07 01:00:22;;;;;;;18.17;3.80;;;8.30;99.90;;;;;;4934576;28;20094;-93
2022/11/07 01:05:09;;;;;;;23.38;2.60;;;8.30;99.90;;;;;;4936852;29;20035;-92
2022/11/07 01:05:33;;;;;;;13.68;2.72;;;8.30;99.90;;;;;;4954173;29;20050;-90
2022/11/07 01:07:59;;;;;;;13.85;2.25;;;8.40;99.90;;;;;;4937991;29;20027;-92
2022/11/07 01:10:25;;;;;;;12.30;1.70;;;8.40;99.90;;;;;;4937589;29;20055;-91
2022/11/07 01:12:50;;;;;;;15.55;2.75;;;8.40;99.90;;;;;;4937418;29;20093;-92
2022/11/07 01:15:16;;;;;;;13.85;1.65;;;8.40;99.90;;;;;;4937277;29;20053;-93
2022/11/07 01:17:42;;;;;;;12.68;2.53;;;8.50;99.90;;;;;;4937150;29;20056;-91
2022/11/07 01:20:08;;;;;;;9.38;1.70;;;8.50;99.90;;;;;;4937418;29;20140;-91
2022/11/07 01:22:33;;;;;;;12.40;1.85;;;8.50;99.90;;;;;;4937096;29;20177;-94
2022/11/07 01:24:59;;;;;;;13.88;3.80;;;8.50;99.90;;;;;;4937431;29;20126;-90
2022/11/07 01:27:25;;;;;;;6.50;1.13;;;8.50;99.90;;;;;;4938222;29;20488;-91
2022/11/07 01:29:50;;;;;;;11.25;1.92;;;8.50;99.90;;;;;;4938160;29;20067;-91
2022/11/07 01:32:16;;;;;;;9.60;1.80;;;8.50;99.90;;;;;;4955430;29;20030;-93
2022/11/07 01:34:42;;;;;;;10.02;1.63;;;8.50;99.90;;;;;;4937412;29;20173;-92
2022/11/07 01:37:07;;;;;;;13.27;2.03;;;8.50;99.90;;;;;;4942374;29;20031;-91
2022/11/07 01:39:33;;;;;;;15.07;1.50;;;8.50;99.90;;;;;;4950149;29;20023;-93
2022/11/07 01:41:59;;;;;;;12.20;2.30;;;8.50;99.90;;;;;;4947478;29;20465;-92
2022/11/07 01:44:24;;;;;;;10.38;1.40;;;8.50;99.90;;;;;;4937344;29;20450;-91
2022/11/07 01:46:54;;;;;;;7.53;1.60;;;8.50;99.90;;;;;;4938758;29;20126;-92
2022/11/07 01:49:22;;;;;;;9.05;1.40;;;8.50;99.90;;;;;;4940865;29;20020;-90
2022/11/07 01:51:54;;;;;;;12.50;1.35;;;8.40;99.90;;;;;;4940710;29;20049;-91
2022/11/07 01:54:25;;;;;;;12.55;1.73;;;8.40;99.90;;;;;;4937273;29;20078;-91
2022/11/07 01:56:53;;;;;;;13.18;1.80;;;8.40;99.90;;;;;;4941086;29;20057;-90
2022/11/07 01:59:22;;;;;;;9.55;1.52;;;8.40;99.90;;;;;;4940691;29;20146;-90
2022/11/07 02:01:48;;;;;;;14.40;1.50;;;8.40;99.90;;;;;;4941312;29;20110;-90
2022/11/07 02:04:15;;;;;;;10.27;1.70;;;8.40;99.90;;;;;;4940882;29;20135;-90
2022/11/07 02:06:43;;;;;;;11.18;1.88;;;8.30;99.90;;;;;;4936503;28;20031;-92
2022/11/07 02:09:09;;;;;;;10.20;1.38;;;8.30;99.90;;;;;;4940825;29;20031;-92
2022/11/07 02:11:35;;;;;;;11.60;2.05;;;8.30;99.90;;;;;;4941028;29;20082;-91
2022/11/07 02:14:01;;;;;;;8.98;1.45;;;8.30;99.90;;;;;;4940803;29;20028;-91
2022/11/07 02:16:28;;;;;;;14.50;3.28;;;8.30;99.90;;;;;;4940593;29;20031;-90
2022/11/07 02:18:54;;;;;;;11.25;1.52;;;8.20;99.90;;;;;;4940741;29;20477;-91
2022/11/07 02:21:47;;;;;;;12.90;1.67;;;8.20;99.90;;;;;;4940579;29;20035;-90
2022/11/07 02:24:30;;;;;;;9.32;2.08;;;8.10;99.90;;;;;;4954049;29;20047;-90
2022/11/07 02:26:58;;;;;;;17.90;2.00;;;8.10;99.90;;;;;;4940741;29;20354;-90
2022/11/07 02:29:25;;;;;;;10.77;1.85;;;8.10;99.90;;;;;;4940416;29;20059;-89
2022/11/07 02:32:06;;;;;;;14.85;1.85;;;8.00;99.90;;;;;;4940496;29;20035;-91
2022/11/07 02:34:32;;;;;;;9.43;1.65;;;8.00;99.90;;;;;;4940835;29;20031;-90
2022/11/07 02:37:00;;;;;;;17.80;2.75;;;8.00;99.90;;;;;;4940274;29;20047;-90
2022/11/07 02:39:25;;;;;;;15.40;1.98;;;8.00;99.90;;;;;;4940339;29;20039;-91
2022/11/07 02:41:53;;;;;;;12.30;2.00;;;8.00;99.90;;;;;;4941249;29;20027;-91
2022/11/07 02:44:19;;;;;;;14.63;2.38;;;8.00;99.90;;;;;;4940862;29;20059;-91
2022/11/07 02:46:45;;;;;;;13.27;2.10;;;8.00;99.90;;;;;;4960421;28;20117;-90
2022/11/07 02:49:11;;;;;;;13.18;3.38;;;8.00;99.90;;;;;;4959808;28;20475;-91
2022/11/07 02:51:37;;;;;;;14.73;1.92;;;8.00;99.90;;;;;;4960427;28;20037;-91
2022/11/07 02:54:02;;;;;;;11.82;2.20;;;8.00;99.90;;;;;;4978512;28;20045;-90
2022/11/07 02:56:28;;;;;;;17.05;2.25;;;8.00;99.90;;;;;;4963290;28;20041;-89
2022/11/07 02:58:54;;;;;;;11.52;1.88;;;8.00;99.90;;;;;;4966781;28;20091;-90
2022/11/07 03:01:21;;;;;;;10.95;1.83;;;8.00;99.90;;;;;;4964815;28;20027;-91
2022/11/07 03:03:49;;;;;;;12.25;2.17;;;8.00;99.90;;;;;;4965396;28;20058;-90
2022/11/07 03:06:20;;;;;;;10.50;2.13;;;8.00;99.90;;;;;;4966942;28;20066;-92
2022/11/07 03:08:46;;;;;;;12.77;1.80;;;8.00;99.90;;;;;;4964197;28;20030;-91
2022/11/07 03:11:12;;;;;;;9.27;1.50;;;7.90;99.90;;;;;;4981325;28;20034;-91
2022/11/07 03:13:39;;;;;;;15.57;1.77;;;7.90;99.90;;;;;;4961211;28;20125;-93
2022/11/07 03:16:10;;;;;;;21.83;2.60;;;7.90;99.90;;;;;;4960713;28;20031;-92
2022/11/07 03:18:35;;;;;;;;;;;7.90;99.90;;;;;;4964865;28;20042;-91
2022/11/07 03:21:02;;;;;;;12.48;2.33;;;7.90;99.90;;;;;;4964909;28;19912;-91
2022/11/07 03:23:28;;;;;;;15.13;2.10;;;8.00;99.90;;;;;;4967668;28;20034;-91
2022/11/07 03:25:53;;;;;;;9.75;1.80;;;8.00;99.90;;;;;;4970628;28;20034;-92
2022/11/07 03:28:19;;;;;;;13.35;1.95;;;8.00;99.90;;;;;;4989036;28;20031;-92
2022/11/07 03:30:45;;;;;;;10.80;2.17;;;8.00;99.90;;;;;;4967602;28;20062;-93
2022/11/07 03:33:10;;;;;;;17.85;2.08;;;8.00;99.90;;;;;;4970550;28;20027;-92
2022/11/07 03:35:36;;;;;;;9.52;1.98;;;8.00;99.90;;;;;;4971959;28;20037;-92
2022/11/07 03:38:02;;;;;;;11.98;1.70;;;8.10;99.90;;;;;;4968673;28;20084;-91
2022/11/07 03:40:27;;;;;;;8.13;1.77;;;8.10;99.90;;;;;;4968506;28;20031;-91
2022/11/07 03:42:53;;;;;;;15.68;2.58;;;8.10;99.90;;;;;;4968686;28;20512;-92
2022/11/07 03:45:19;;;;;;;15.70;3.67;;;8.10;99.90;;;;;;4976381;28;20065;-91
2022/11/07 03:47:45;;;;;;;16.42;1.52;;;8.20;99.90;;;;;;4963027;28;20273;-92
2022/11/07 03:50:17;;;;;;;10.77;2.70;;;8.20;99.90;;;;;;4962557;28;20031;-91
2022/11/07 03:52:43;;;;;;;14.23;2.75;;;8.20;99.90;;;;;;4961157;28;20027;-91
2022/11/07 03:55:09;;;;;;;17.10;1.90;;;8.20;99.90;;;;;;4959887;28;20026;-91
2022/11/07 03:57:35;;;;;;;15.45;2.13;;;8.30;99.90;;;;;;4956463;28;20113;-91
2022/11/07 04:00:01;;;;;;;15.90;2.13;;;8.30;99.90;;;;;;4959704;28;20513;-92
2022/11/07 04:02:27;;;;;;;21.65;2.33;;;8.30;99.90;;;;;;4959459;28;20070;-90
2022/11/07 04:04:52;;;;;;;15.90;1.90;;;8.40;99.90;;;;;;4959666;28;20093;-91
2022/11/07 04:07:18;;;;;;;13.38;2.40;;;8.40;99.90;;;;;;4959704;28;20038;-91
2022/11/07 04:09:43;;;;;;;18.17;2.50;;;8.40;99.90;;;;;;4958265;28;20029;-90
2022/11/07 04:17:38;;;;;;;14.30;1.80;;;8.40;99.90;;;;;;4976111;28;20053;-91
2022/11/07 04:20:04;;;;;;;17.20;2.17;;;8.50;99.90;;;;;;4969504;28;20477;-91
2022/11/07 04:22:30;;;;;;;11.95;1.67;;;8.50;99.90;;;;;;4957646;28;20030;-92
2022/11/07 04:24:56;;;;;;;15.80;1.80;;;8.50;99.90;;;;;;4974132;28;20047;-92
2022/11/07 04:30:25;;;;;;;19.33;2.15;;;8.50;99.90;;;;;;4976040;28;20099;-91
2022/11/07 04:32:53;;;;;;;21.35;2.58;;;8.50;99.90;;;;;;4957886;28;20572;-92
2022/11/07 04:35:24;;;;;;;15.40;1.92;;;8.50;99.90;;;;;;4958750;28;20081;-92
2022/11/07 04:37:50;;;;;;;11.98;1.77;;;8.50;99.90;;;;;;4958692;28;20035;-92
2022/11/07 04:40:16;;;;;;;11.85;2.30;;;8.60;99.90;;;;;;4974355;28;20041;-93
2022/11/07 04:42:43;;;;;;;12.82;1.98;;;8.60;99.90;;;;;;4973506;28;20023;-92
2022/11/07 04:45:10;;;;;;;12.73;1.85;;;8.60;99.90;;;;;;4957552;28;20085;-91
2022/11/07 04:47:36;;;;;;;16.27;2.05;;;8.60;99.90;;;;;;4958286;28;20049;-91
2022/11/07 04:50:03;;;;;;;12.10;1.80;;;8.60;99.90;;;;;;4957523;28;20023;-92
2022/11/07 04:52:29;;;;;;;15.18;2.13;;;8.70;99.90;;;;;;4957401;28;20127;-92
2022/11/07 04:54:54;;;;;;;28.17;4.20;;;8.70;99.90;;;;;;4957304;28;20520;-91
2022/11/07 04:57:20;;;;;;;19.83;2.15;;;8.70;99.90;;;;;;4974005;28;20041;-90
2022/11/07 04:59:45;;;;;;;13.95;2.20;;;8.70;99.90;;;;;;4952720;28;20023;-93
2022/11/07 05:02:11;;;;;;;13.20;2.20;;;8.70;99.90;;;;;;4957826;28;20030;-91
2022/11/07 05:04:38;;;;;;;18.75;2.97;;;8.70;99.90;;;;;;4957595;28;20057;-92
2022/11/07 05:07:03;;;;;;;13.57;2.47;;;8.70;99.90;;;;;;4957565;28;20026;-92
2022/11/07 05:09:31;;;;;;;16.70;2.20;;;8.80;99.90;;;;;;4957303;28;20057;-92
2022/11/07 05:11:56;;;;;;;21.80;2.15;;;8.80;99.90;;;;;;4957884;28;20030;-91
2022/11/07 05:14:22;;;;;;;16.75;2.58;;;8.80;99.90;;;;;;4957739;28;20033;-93
2022/11/07 05:16:49;;;;;;;18.15;2.90;;;8.80;99.90;;;;;;4957883;28;20038;-90
2022/11/07 05:19:16;;;;;;;12.20;2.17;;;8.80;99.90;;;;;;4958176;28;20082;-91
2022/11/07 05:21:43;;;;;;;12.07;2.25;;;8.80;99.90;;;;;;4957995;28;20035;-92
2022/11/07 05:24:09;;;;;;;12.90;1.95;;;8.80;99.90;;;;;;4953048;28;20027;-89
2022/11/07 05:26:34;;;;;;;19.38;2.28;;;8.80;99.90;;;;;;4957484;28;20113;-92
2022/11/07 05:29:00;;;;;;;15.15;2.17;;;8.80;99.90;;;;;;4957475;28;20027;-92
2022/11/07 05:31:26;;;;;;;14.02;1.80;;;8.80;99.90;;;;;;4973783;28;20126;-91
2022/11/07 05:33:52;;;;;;;16.70;2.25;;;8.80;99.90;;;;;;4957546;28;20026;-91
2022/11/07 05:36:20;;;;;;;9.98;1.98;;;8.80;99.90;;;;;;4956856;28;20030;-91
2022/11/07 05:38:48;;;;;;;20.02;2.95;;;8.80;99.90;;;;;;4973110;28;20408;-89
2022/11/07 05:41:15;;;;;;;16.85;2.88;;;8.80;99.90;;;;;;4956494;28;20026;-90
2022/11/07 05:43:41;;;;;;;12.02;2.30;;;8.80;99.90;;;;;;4956993;28;20053;-93
2022/11/07 05:46:07;;;;;;;18.25;2.25;;;8.90;99.90;;;;;;4957175;28;20098;-92
2022/11/07 05:48:33;;;;;;;13.70;1.92;;;8.90;99.90;;;;;;4957097;28;20023;-91
2022/11/07 05:51:00;;;;;;;16.25;3.10;;;8.90;99.90;;;;;;4957233;28;20059;-92
2022/11/07 05:53:25;;;;;;;13.52;2.05;;;8.90;99.90;;;;;;4973438;28;20038;-92
2022/11/07 05:55:52;;;;;;;12.70;1.70;;;8.90;99.90;;;;;;4956808;28;20023;-92
2022/11/07 05:58:18;;;;;;;17.20;2.15;;;9.00;99.90;;;;;;4956766;28;20118;-92
2022/11/07 06:00:44;;;;;;;33.92;4.13;;;9.00;99.90;;;;;;4957676;28;20034;-90
2022/11/07 06:03:10;;;;;;;11.05;2.50;;;9.00;99.90;;;;;;4956078;28;20026;-91
2022/11/07 06:05:38;;;;;;;15.98;2.30;;;9.00;99.90;;;;;;4957377;28;20035;-91
2022/11/07 06:08:04;;;;;;;15.20;2.97;;;9.00;99.90;;;;;;4974216;28;20054;-91
2022/11/07 06:10:30;;;;;;;17.23;2.65;;;9.00;99.90;;;;;;4956808;28;20023;-92
2022/11/07 06:12:58;;;;;;;16.25;2.30;;;9.00;99.90;;;;;;4960226;28;20027;-91
2022/11/07 06:15:24;;;;;;;16.08;2.60;;;9.10;99.90;;;;;;4956707;28;20026;-89
2022/11/07 06:17:49;;;;;;;13.18;3.15;;;9.10;99.90;;;;;;4956492;28;20550;-89
2022/11/07 06:20:15;;;;;;;17.02;2.70;;;9.10;99.90;;;;;;4957123;28;20027;-89
2022/11/07 06:22:41;;;;;;;12.57;2.25;;;9.10;99.90;;;;;;4973698;28;20389;-90
2022/11/07 06:25:07;;;;;;;18.98;3.05;;;9.10;99.90;;;;;;4958049;28;20087;-92
2022/11/07 06:27:33;;;;;;;12.02;1.88;;;9.10;99.90;;;;;;4953293;28;20027;-92
2022/11/07 06:29:58;;;;;;;6.90;1.80;;;9.10;99.90;;;;;;4957165;28;20034;-92
2022/11/07 06:32:24;;;;;;;16.92;2.65;;;9.20;99.90;;;;;;4958477;28;20392;-91
2022/11/07 06:34:50;;;;;;;12.75;2.85;;;9.20;99.90;;;;;;4985888;28;20600;-91
2022/11/07 06:37:15;;;;;;;13.35;1.90;;;9.20;99.90;;;;;;4971989;28;20078;-91
2022/11/07 06:39:41;;;;;;;21.08;3.40;;;9.20;99.90;;;;;;4979980;28;20491;-90
2022/11/07 06:42:06;;;;;;;13.95;1.88;;;9.20;99.90;;;;;;4960403;28;20116;-90
2022/11/07 06:44:32;;;;;;;10.02;2.22;;;9.30;99.90;;;;;;4959003;28;20104;-91
2022/11/07 06:46:58;;;;;;;10.05;2.25;;;9.30;99.90;;;;;;4959174;28;20174;-90
2022/11/07 06:49:23;;;;;;;9.82;1.90;;;9.30;99.90;;;;;;4958654;28;20069;-90
2022/11/07 06:51:49;;;;;;;11.60;1.80;;;9.30;99.90;;;;;;4957944;28;20031;-91
2022/11/07 06:54:15;;;;;;;10.00;2.03;;;9.40;99.90;;;;;;4956451;28;20068;-90
2022/11/07 06:56:40;;;;;;;17.63;3.05;;;9.40;99.90;;;;;;4974635;28;20034;-90
2022/11/07 06:59:06;;;;;;;19.67;2.38;;;9.50;99.90;;;;;;4958142;28;20088;-91
2022/11/07 07:01:31;;;;;;;15.35;2.63;;;9.50;99.90;;;;;;4956275;28;20121;-91
2022/11/07 07:03:59;;;;;;;17.95;3.05;;;9.50;99.90;;;;;;4956294;28;20106;-92
2022/11/07 07:06:24;;;;;;;15.68;1.83;;;9.50;99.90;;;;;;4958615;28;20484;-92
2022/11/07 07:08:50;;;;;;;12.82;3.28;;;9.60;99.90;;;;;;4958959;28;20114;-91
2022/11/07 07:11:16;;;;;;;13.02;1.88;;;9.70;99.90;;;;;;4975075;28;20031;-91
2022/11/07 07:13:42;;;;;;;16.05;2.53;;;9.70;99.90;;;;;;4956529;28;20059;-91
2022/11/07 07:16:08;;;;;;;15.23;2.92;;;9.70;99.90;;;;;;4958374;28;20069;-92
2022/11/07 07:18:35;;;;;;;19.67;3.38;;;9.70;99.90;;;;;;4958698;28;20031;-92
2022/11/07 07:21:09;;;;;;;14.07;2.90;;;9.70;99.90;;;;;;4955670;29;20027;-91
2022/11/07 07:23:37;;;;;;;17.02;3.17;;;9.70;99.90;;;;;;4973392;28;20037;-89
2022/11/07 07:26:04;;;;;;;18.40;3.20;;;9.70;99.90;;;;;;4961420;28;20031;-91
2022/11/07 07:28:30;;;;;;;18.52;3.83;;;9.70;99.90;;;;;;4972472;28;20054;-89
2022/11/07 07:31:14;;;;;;;14.45;3.25;;;9.80;99.90;;;;;;4958666;28;20053;-93
2022/11/07 07:33:41;;;;;;;21.33;3.25;;;9.80;99.90;;;;;;4970740;28;20030;-92
2022/11/07 07:36:08;;;;;;;18.17;3.30;;;9.80;99.90;;;;;;4954373;28;20115;-91
2022/11/07 07:38:34;;;;;;;24.80;4.28;;;9.80;99.90;;;;;;4959114;28;20030;-91
2022/11/07 07:41:00;;;;;;;25.13;3.95;;;9.80;99.90;;;;;;4956180;28;20553;-89
2022/11/07 07:43:27;;;;;;;19.73;3.78;;;9.90;99.90;;;;;;4960040;28;20058;-91
2022/11/07 07:45:53;;;;;;;39.22;4.82;;;9.90;99.90;;;;;;4962289;28;20031;-91
2022/11/07 07:48:18;;;;;;;30.30;4.18;;;9.90;99.90;;;;;;4962553;28;20085;-90
2022/11/07 07:50:47;;;;;;;22.52;4.40;;;9.90;99.90;;;;;;4959652;28;20034;-93
2022/11/07 07:53:13;;;;;;;27.23;4.53;;;9.90;99.90;;;;;;4961126;28;20031;-92
2022/11/07 07:55:39;;;;;;;26.67;4.75;;;10.00;99.90;;;;;;4968343;28;20106;-91
2022/11/07 07:58:04;;;;;;;26.58;4.15;;;10.00;99.90;;;;;;4965964;28;20488;-93
2022/11/07 08:00:30;;;;;;;22.52;4.30;;;10.00;99.90;;;;;;4981653;28;20034;-92
2022/11/07 08:03:00;;;;;;;29.77;5.68;;;10.10;99.90;;;;;;4961182;28;20019;-93
2022/11/07 08:05:27;;;;;;;22.30;3.72;;;10.10;99.90;;;;;;4958963;28;20097;-93
2022/11/07 08:07:53;;;;;;;27.08;3.97;;;10.10;99.90;;;;;;4959793;28;20039;-93
2022/11/07 08:10:19;;;;;;;24.95;5.13;;;10.10;99.90;;;;;;4960148;28;20031;-93
2022/11/07 08:12:46;;;;;;;25.02;4.10;;;10.20;99.90;;;;;;4957618;28;20027;-93
2022/11/07 08:15:13;;;;;;;21.80;3.92;;;10.20;99.90;;;;;;4973749;28;20030;-93
2022/11/07 08:17:40;;;;;;;22.20;3.83;;;10.20;99.90;;;;;;4974070;28;20022;-92
2022/11/07 08:20:08;;;;;;;20.25;3.80;;;10.20;99.90;;;;;;4958589;28;20047;-92
2022/11/07 08:22:37;;;;;;;19.70;2.97;;;10.30;99.90;;;;;;4958268;28;20042;-91
2022/11/07 08:25:05;;;;;;;30.23;3.63;;;10.30;99.90;;;;;;4958292;28;20585;-92
2022/11/07 08:27:31;;;;;;;19.63;4.00;;;10.30;99.90;;;;;;4958452;28;20042;-91
2022/11/07 08:29:57;;;;;;;21.33;3.67;;;10.30;99.90;;;;;;4958530;28;20038;-93
2022/11/07 08:32:23;;;;;;;22.15;3.40;;;10.40;99.90;;;;;;4958409;28;20121;-93
2022/11/07 08:34:49;;;;;;;22.58;3.78;;;10.40;99.90;;;;;;4973796;28;20137;-93
2022/11/07 08:37:15;;;;;;;26.55;4.35;;;10.40;99.90;;;;;;4959666;28;20038;-92
2022/11/07 08:39:40;;;;;;;21.60;5.15;;;10.50;99.90;;;;;;4966765;28;20026;-92
2022/11/07 08:42:06;;;;;;;26.23;3.72;;;10.50;99.90;;;;;;4968332;28;20074;-92
2022/11/07 08:44:33;;;;;;;24.90;4.57;;;10.60;99.90;;;;;;4965508;28;20050;-93
2022/11/07 08:46:59;;;;;;;25.65;3.30;;;10.60;99.90;;;;;;4966946;28;20507;-93
2022/11/07 08:49:25;;;;;;;26.17;4.53;;;10.60;99.90;;;;;;4963012;28;20554;-91
2022/11/07 08:51:53;;;;;;;21.70;3.17;;;10.60;99.90;;;;;;4952471;28;20077;-95
2022/11/07 08:54:20;;;;;;;28.95;3.50;;;10.60;99.90;;;;;;4952807;28;20072;-92
2022/11/07 08:56:46;;;;;;;22.75;3.25;;;10.70;99.90;;;;;;4957060;28;20030;-92
2022/11/07 08:59:12;;;;;;;28.42;3.30;;;10.70;99.90;;;;;;4954092;29;20027;-91
2022/11/07 09:01:38;;;;;;;20.90;3.10;;;10.70;99.90;;;;;;4956867;28;20472;-91
2022/11/07 09:04:04;;;;;;;22.67;2.88;;;10.70;99.90;;;;;;4953084;28;20023;-92
2022/11/07 09:06:31;;;;;;;32.97;3.70;;;10.80;99.90;;;;;;4961564;28;20038;-92
2022/11/07 09:08:57;;;;;;;23.63;3.22;;;10.80;99.90;;;;;;4973283;28;20035;-92
2022/11/07 09:11:24;;;;;;;20.48;2.85;;;10.80;99.90;;;;;;4955707;28;20034;-91
2022/11/07 09:13:50;;;;;;;18.60;2.70;;;10.80;99.90;;;;;;4956246;28;20046;-92
2022/11/07 09:16:16;;;;;;;20.65;3.08;;;10.90;99.90;;;;;;4955147;28;20019;-92
2022/11/07 09:18:43;;;;;;;14.75;2.30;;;10.90;99.90;;;;;;4955567;28;20033;-92
2022/11/07 09:21:09;;;;;;;21.30;2.22;;;10.90;99.90;;;;;;4968713;28;20033;-93
2022/11/07 09:23:35;;;;;;;22.33;3.05;;;10.90;99.90;;;;;;4972725;28;20114;-90
2022/11/07 09:26:01;;;;;;;14.43;2.45;;;11.00;99.90;;;;;;4955432;28;20039;-91
2022/11/07 09:28:28;;;;;;;17.92;3.05;;;11.00;99.90;;;;;;4955945;28;20164;-91
2022/11/07 09:30:58;;;;;;;20.75;2.58;;;11.00;99.90;;;;;;4955787;28;20058;-93
2022/11/07 09:33:25;;;;;;;22.05;2.97;;;11.10;99.90;;;;;;4956036;28;20049;-91
2022/11/07 09:35:51;;;;;;;23.33;2.95;;;11.10;99.90;;;;;;4955594;28;20097;-92
2022/11/07 09:38:16;;;;;;;21.30;3.20;;;11.10;99.90;;;;;;4972095;28;20023;-93
2022/11/07 09:41:20;;;;;;;23.85;2.58;;;11.10;99.90;;;;;;4956974;28;20027;-93
2022/11/07 09:43:57;;;;;;;16.25;2.35;;;11.20;99.90;;;;;;4954614;28;20054;-94
2022/11/07 09:46:31;;;;;;;25.92;3.45;;;11.10;99.90;;;;;;4969328;28;20054;-92
2022/11/07 09:49:26;;;;;;;27.85;3.35;;;11.20;99.90;;;;;;4968638;28;20022;-93
2022/11/07 09:51:58;;;;;;;16.77;2.67;;;11.20;99.90;;;;;;4954217;28;20035;-93
2022/11/07 09:54:33;;;;;;;23.55;3.25;;;11.30;99.90;;;;;;4960554;28;20023;-93
2022/11/07 09:56:59;;;;;;;24.00;4.00;;;11.30;99.90;;;;;;4960633;28;20480;-91
2022/11/07 09:59:36;;;;;;;16.90;3.00;;;11.40;99.90;;;;;;4958100;28;20023;-92
2022/11/07 10:02:10;;;;;;;29.05;5.05;;;11.40;99.90;;;;;;4958342;28;20098;-91
2022/11/07 10:04:37;;;;;;;17.90;3.90;;;11.40;99.90;;;;;;4976273;28;20039;-92
2022/11/07 10:07:12;;;;;;;23.10;3.20;;;11.40;99.90;;;;;;4964098;28;20062;-92
2022/11/07 10:10:06;;;;;;;19.65;3.33;;;11.50;99.90;;;;;;4960735;28;20101;-93
2022/11/07 10:13:03;;;;;;;28.55;2.88;;;11.50;99.90;;;;;;4961867;28;20039;-91
2022/11/07 10:15:36;;;;;;;21.60;3.88;;;11.50;99.90;;;;;;4957515;28;20042;-92
2022/11/07 10:18:41;;;;;;;22.42;3.05;;;11.60;99.90;;;;;;4959338;28;20026;-93
2022/11/07 10:21:06;;;;;;;22.13;2.97;;;11.60;99.90;;;;;;4958195;28;20113;-93
2022/11/07 10:23:47;;;;;;;16.83;3.30;;;11.60;99.90;;;;;;4958989;28;20085;-94
2022/11/07 10:26:18;;;;;;;21.75;2.55;;;11.70;99.90;;;;;;4973440;28;20059;-92
2022/11/07 10:28:46;;;;;;;;;;;11.70;99.90;;;;;;4959225;28;20484;-93
2022/11/07 10:31:15;;;;;;;21.02;2.50;;;11.70;99.90;;;;;;4959143;28;19910;-92
2022/11/07 10:33:56;;;;;;;20.25;3.15;;;11.70;99.90;;;;;;4958680;28;20396;-93
2022/11/07 10:36:26;;;;;;;23.60;5.47;;;11.70;99.90;;;;;;4959754;28;20546;-92
2022/11/07 10:38:51;;;;;;;13.27;2.75;;;11.70;99.90;;;;;;4976771;28;20555;-93
2022/11/07 10:41:26;;;;;;;21.23;2.72;;;11.70;99.90;;;;;;4961329;28;20030;-93
2022/11/07 10:44:01;;;;;;;20.23;2.97;;;11.70;99.90;;;;;;4963785;28;20138;-92
2022/11/07 10:46:35;;;;;;;21.52;3.10;;;11.70;99.90;;;;;;4966783;28;20031;-92
2022/11/07 10:49:01;;;;;;;18.08;3.17;;;11.70;99.90;;;;;;4959383;28;20019;-91
2022/11/07 10:51:33;;;;;;;16.52;3.35;;;11.80;99.90;;;;;;4958874;28;20035;-93
2022/11/07 10:53:59;;;;;;;26.17;3.42;;;11.80;99.90;;;;;;4958702;28;20023;-91
2022/11/07 10:56:24;;;;;;;18.38;3.00;;;11.80;99.90;;;;;;4958605;28;20603;-91
2022/11/07 10:58:50;;;;;;;26.35;2.90;;;11.80;99.90;;;;;;4956180;28;20023;-91
2022/11/07 11:01:26;;;;;;;20.27;2.83;;;11.80;99.90;;;;;;4957891;28;20049;-92
2022/11/07 11:03:52;;;;;;;20.90;3.72;;;11.80;99.90;;;;;;4955654;28;20078;-93
2022/11/07 11:06:18;;;;;;;25.98;3.30;;;11.80;99.90;;;;;;4975434;28;20043;-93
2022/11/07 11:08:49;;;;;;;20.42;4.88;;;11.80;99.90;;;;;;4958652;28;20023;-94
2022/11/07 11:11:21;;;;;;;18.58;3.08;;;11.90;99.90;;;;;;4958366;28;20078;-94
2022/11/07 11:13:48;;;;;;;18.70;2.92;;;11.80;99.90;;;;;;4952666;28;20026;-92
2022/11/07 11:16:34;;;;;;;18.90;2.97;;;11.90;99.90;;;;;;4958625;28;20027;-93
2022/11/07 11:19:01;;;;;;;27.67;2.63;;;11.90;99.90;;;;;;4949446;28;20023;-92
2022/11/07 11:21:38;;;;;;;11.68;2.17;;;11.90;99.90;;;;;;4958635;28;20046;-94
2022/11/07 11:24:30;;;;;;;14.57;3.03;;;11.90;99.90;;;;;;4957582;28;20071;-93
2022/11/07 11:27:18;;;;;;;15.75;2.88;;;11.90;99.90;;;;;;4974235;28;20117;-92
2022/11/07 11:29:56;;;;;;;14.70;2.40;;;12.00;99.90;;;;;;4957811;28;20031;-92
2022/11/07 11:32:36;;;;;;;17.77;4.03;;;12.00;99.90;;;;;;4956998;28;20027;-92
2022/11/07 11:35:32;;;;;;;22.15;3.67;;;12.00;99.90;;;;;;4960017;28;20161;-93
2022/11/07 11:38:12;;;;;;;15.27;3.13;;;12.00;99.90;;;;;;4956709;28;20030;-93
2022/11/07 11:40:40;;;;;;;;;;;12.00;99.90;;;;;;4958929;28;20043;-92
2022/11/07 11:43:20;;;;;;;21.63;2.97;;;12.00;99.90;;;;;;4974153;28;19938;-92
2022/11/07 11:46:01;;;;;;;18.58;2.53;;;12.00;99.90;;;;;;4958563;28;20031;-91
2022/11/07 11:48:29;;;;;;;;;;;12.10;99.90;;;;;;4958764;28;20022;-92
2022/11/07 11:51:04;;;;;;;15.13;2.58;;;12.10;99.90;;;;;;4958317;28;19913;-91
2022/11/07 11:53:30;;;;;;;15.45;2.80;;;12.10;99.90;;;;;;4957865;28;20476;-93
2022/11/07 11:56:10;;;;;;;12.82;2.45;;;12.10;99.90;;;;;;4974512;28;20021;-93
2022/11/07 11:58:42;;;;;;;17.63;2.85;;;12.20;99.90;;;;;;4966368;28;20472;-91
2022/11/07 12:01:23;;;;;;;19.17;2.60;;;12.20;99.90;;;;;;4956908;28;20404;-91
2022/11/07 12:04:45;;;;;;;12.38;2.72;;;12.20;99.90;;;;;;4956896;28;20638;-92
2022/11/07 12:07:14;;;;;;;14.35;2.17;;;12.20;99.90;;;;;;4925101;29;20052;-92
2022/11/07 12:10:02;;;;;;;15.05;2.22;;;12.30;99.90;;;;;;4915545;29;20079;-91
2022/11/07 12:12:27;;;;;;;13.05;2.78;;;12.30;99.90;;;;;;4896652;29;20119;-90
2022/11/07 12:15:18;;;;;;;8.70;1.92;;;12.30;99.90;;;;;;4902589;29;20143;-91
2022/11/07 12:17:47;;;;;;;;;;;12.30;99.90;;;;;;4915993;29;20040;-92
2022/11/07 12:20:45;;;;;;;16.27;2.50;;;12.30;99.90;;;;;;4911641;29;19911;-93
2022/11/07 12:23:25;;;;;;;14.10;2.10;;;12.40;99.90;;;;;;4901063;29;20044;-89
2022/11/07 12:26:12;;;;;;;19.63;3.22;;;12.40;99.90;;;;;;4900224;29;20039;-91
2022/11/07 12:28:49;;;;;;;14.75;2.42;;;12.40;99.90;;;;;;4921569;29;20025;-93
2022/11/07 12:31:39;;;;;;;18.58;3.83;;;12.40;99.90;;;;;;4914718;29;20040;-94
2022/11/07 12:34:23;;;;;;;15.60;2.65;;;12.40;99.90;;;;;;4902987;29;20028;-92
2022/11/07 12:37:04;;;;;;;13.70;4.13;;;12.40;99.90;;;;;;4935979;29;20035;-92
2022/11/07 12:39:55;;;;;;;12.48;2.30;;;12.30;99.90;;;;;;4935715;29;20039;-93
2022/11/07 12:42:45;;;;;;;18.05;3.80;;;12.40;99.90;;;;;;4950803;28;20030;-91
2022/11/07 12:45:51;;;;;;;18.58;2.85;;;12.30;99.90;;;;;;4976074;28;20062;-90
2022/11/07 12:49:07;;;;;;;12.68;2.53;;;12.30;99.90;;;;;;4975131;28;20058;-90
2022/11/07 12:51:48;;;;;;;11.57;2.70;;;12.30;99.90;;;;;;4960766;28;20083;-92
2022/11/07 12:54:36;;;;;;;15.27;2.55;;;12.30;99.90;;;;;;4953588;28;20035;-92
2022/11/07 12:57:05;;;;;;;15.68;3.42;;;12.30;99.90;;;;;;4972431;28;20035;-91
2022/11/07 12:59:31;;;;;;;7.95;2.00;;;12.30;99.90;;;;;;4953099;29;20127;-91
2022/11/07 13:02:07;;;;;;;10.10;2.53;;;12.30;99.90;;;;;;4955803;28;20396;-92
2022/11/07 13:04:40;;;;;;;10.35;2.60;;;12.30;99.90;;;;;;4973359;28;20531;-91
2022/11/07 13:07:25;;;;;;;16.40;2.75;;;12.40;99.90;;;;;;4957411;28;20019;-93